Time;durP1;ratioP1;P1;durP2;ratioP2;P2;SDS_P1;SDS_P2;PMS_P1;PMS_P2;Temp;Humidity;BMP_temperature;BMP_pressure;BME280_temperature;BME280_humidity;BME280_pressure;Samples;Min_cycle;Max_cycle;Signal;HPM_P1;HPM_P2
2021/11/28 00:00:39;;;;;;;1.77;1.10;;;21.60;35.80;;;;;;4992496;28;20493;-71
2021/11/28 00:03:04;;;;;;;1.55;1.20;;;21.60;35.90;;;;;;4992457;28;20397;-72
2021/11/28 00:05:30;;;;;;;1.60;1.10;;;21.60;35.90;;;;;;4992351;28;20403;-72
2021/11/28 00:08:14;;;;;;;2.85;1.00;;;21.60;35.90;;;;;;4990603;28;20420;-71
2021/11/28 00:11:00;;;;;;;1.40;0.90;;;21.60;35.80;;;;;;4992343;28;20856;-72
2021/11/28 00:15:56;;;;;;;1.33;0.80;;;21.60;35.70;;;;;;4991922;28;20956;-72
2021/11/28 00:18:22;;;;;;;1.20;0.75;;;21.60;35.70;;;;;;4992016;28;20386;-73
2021/11/28 00:20:49;;;;;;;2.00;1.00;;;21.60;35.80;;;;;;4992134;28;20401;-72
2021/11/28 00:23:14;;;;;;;1.40;0.90;;;21.60;35.80;;;;;;4992130;28;20891;-72
2021/11/28 00:25:40;;;;;;;1.33;0.80;;;21.60;35.70;;;;;;4991864;28;20470;-73
2021/11/28 00:28:06;;;;;;;1.30;0.82;;;21.60;35.70;;;;;;4991245;28;20422;-72
2021/11/28 00:30:32;;;;;;;1.40;0.80;;;21.60;35.70;;;;;;4990760;28;20395;-72
2021/11/28 00:33:00;;;;;;;1.20;1.00;;;21.60;35.80;;;;;;4991686;28;20426;-73
2021/11/28 00:35:26;;;;;;;2.08;0.93;;;21.60;35.90;;;;;;4992072;28;20415;-73
2021/11/28 00:37:52;;;;;;;1.67;1.00;;;21.60;35.90;;;;;;4991837;28;20764;-72
2021/11/28 00:40:18;;;;;;;1.42;0.90;;;21.60;35.70;;;;;;4990239;28;20395;-72
2021/11/28 00:42:43;;;;;;;1.37;0.90;;;21.50;35.90;;;;;;4990847;28;20403;-73
2021/11/28 00:45:09;;;;;;;1.75;0.90;;;21.50;36.10;;;;;;4990678;28;20494;-72
2021/11/28 00:47:35;;;;;;;1.83;0.95;;;21.40;36.10;;;;;;4991872;28;20427;-72
2021/11/28 00:52:28;;;;;;;1.50;1.00;;;21.40;36.30;;;;;;4991920;28;20474;-73
2021/11/28 00:54:54;;;;;;;1.20;0.80;;;21.30;36.30;;;;;;4990705;28;20951;-73
2021/11/28 00:57:19;;;;;;;1.80;1.10;;;21.30;36.30;;;;;;4991820;28;20481;-72
2021/11/28 00:59:45;;;;;;;1.45;1.00;;;21.30;36.40;;;;;;4991875;28;20393;-72
2021/11/28 01:02:11;;;;;;;1.90;0.90;;;21.30;36.40;;;;;;4989679;28;20390;-72
2021/11/28 01:04:38;;;;;;;1.30;0.90;;;21.30;36.30;;;;;;4991924;28;20422;-72
2021/11/28 01:07:03;;;;;;;1.67;0.90;;;21.30;36.40;;;;;;4991804;28;20446;-72
2021/11/28 01:09:29;;;;;;;1.40;1.00;;;21.30;36.40;;;;;;4990321;28;20426;-72
2021/11/28 01:11:55;;;;;;;1.50;1.03;;;21.30;36.30;;;;;;4990459;28;20397;-73
2021/11/28 01:14:20;;;;;;;1.25;0.90;;;21.30;36.40;;;;;;4991093;28;20409;-72
2021/11/28 01:16:46;;;;;;;2.00;1.10;;;21.30;36.30;;;;;;4990566;28;20493;-72
2021/11/28 01:19:12;;;;;;;1.52;0.90;;;21.30;36.30;;;;;;4990539;28;20429;-72
2021/11/28 01:21:51;;;;;;;1.40;0.82;;;21.30;36.30;;;;;;4991838;28;20390;-71
2021/11/28 01:24:17;;;;;;;1.63;0.90;;;21.30;36.30;;;;;;4989319;28;20390;-73
2021/11/28 01:26:43;;;;;;;1.60;1.10;;;21.30;36.30;;;;;;4991787;28;20413;-73
2021/11/28 01:29:09;;;;;;;1.50;1.03;;;21.30;36.30;;;;;;4990259;28;20426;-71
2021/11/28 01:31:34;;;;;;;1.10;0.90;;;21.30;36.20;;;;;;4991794;28;20396;-72
2021/11/28 01:34:00;;;;;;;1.83;1.00;;;21.30;36.30;;;;;;4991436;28;20908;-72
2021/11/28 01:36:26;;;;;;;1.77;1.10;;;21.30;36.20;;;;;;4990301;28;20469;-73
2021/11/28 01:38:51;;;;;;;1.97;0.90;;;21.30;36.20;;;;;;4991690;28;20872;-72
2021/11/28 01:41:17;;;;;;;1.38;0.90;;;21.20;36.10;;;;;;4991495;28;20408;-72
2021/11/28 01:43:43;;;;;;;2.10;1.03;;;21.20;36.20;;;;;;4990214;28;20411;-72
2021/11/28 01:46:09;;;;;;;2.42;0.88;;;21.30;36.30;;;;;;4994350;28;20399;-72
2021/11/28 01:48:34;;;;;;;2.75;0.95;;;21.20;36.20;;;;;;4993595;28;20426;-72
2021/11/28 01:51:02;;;;;;;1.70;0.80;;;21.20;36.20;;;;;;4995102;28;20398;-72
2021/11/28 01:53:28;;;;;;;2.03;0.88;;;21.30;36.90;;;;;;4993795;28;20485;-72
2021/11/28 01:55:55;;;;;;;1.50;0.90;;;21.30;36.20;;;;;;4994985;28;20390;-73
2021/11/28 01:58:21;;;;;;;1.70;0.90;;;21.20;36.20;;;;;;4994492;28;20445;-72
2021/11/28 02:00:57;;;;;;;1.48;0.90;;;21.20;36.20;;;;;;4995048;28;20390;-71
2021/11/28 02:03:23;;;;;;;1.60;0.90;;;21.20;36.20;;;;;;4994911;28;20943;-72
2021/11/28 02:05:52;;;;;;;0.95;0.70;;;21.20;36.20;;;;;;4994954;28;20403;-73
2021/11/28 02:08:19;;;;;;;1.55;0.85;;;21.20;36.30;;;;;;4993987;28;20430;-73
2021/11/28 02:10:45;;;;;;;1.15;0.82;;;21.20;36.20;;;;;;4993497;28;20406;-72
2021/11/28 02:13:12;;;;;;;1.38;0.90;;;21.20;36.20;;;;;;4994596;28;20526;-73
2021/11/28 02:15:38;;;;;;;1.48;0.90;;;21.20;36.20;;;;;;4994697;28;20398;-73
2021/11/28 02:18:04;;;;;;;1.42;0.90;;;21.20;36.10;;;;;;4994425;28;20418;-73
2021/11/28 02:20:31;;;;;;;1.30;0.70;;;21.20;36.10;;;;;;4993188;28;20395;-73
2021/11/28 02:22:58;;;;;;;1.38;0.90;;;21.20;36.10;;;;;;4994712;28;20395;-73
2021/11/28 02:25:27;;;;;;;1.50;0.80;;;21.20;36.00;;;;;;4994532;28;20394;-73
2021/11/28 02:27:54;;;;;;;1.88;1.00;;;21.20;36.10;;;;;;4994450;28;20896;-72
2021/11/28 02:30:20;;;;;;;1.65;0.93;;;21.10;36.00;;;;;;4993680;28;20421;-73
2021/11/28 02:32:47;;;;;;;2.05;1.00;;;21.20;36.00;;;;;;4994456;28;20422;-73
2021/11/28 02:35:14;;;;;;;1.40;0.90;;;21.20;36.00;;;;;;4993038;28;20394;-72
2021/11/28 02:37:42;;;;;;;1.60;0.80;;;21.10;36.00;;;;;;4992964;28;20434;-72
2021/11/28 02:40:10;;;;;;;1.30;0.82;;;21.10;36.00;;;;;;4993760;28;20439;-71
2021/11/28 02:42:36;;;;;;;1.80;0.80;;;21.10;36.00;;;;;;4994113;28;21158;-72
2021/11/28 02:45:03;;;;;;;1.30;0.87;;;21.10;36.00;;;;;;4993920;28;20469;-72
2021/11/28 02:47:28;;;;;;;1.38;0.90;;;21.10;36.00;;;;;;4993924;28;20418;-72
2021/11/28 02:49:54;;;;;;;1.88;1.00;;;21.10;35.90;;;;;;4994065;28;20449;-72
2021/11/28 02:52:21;;;;;;;1.83;1.00;;;21.10;36.00;;;;;;4993514;28;20379;-72
2021/11/28 02:54:47;;;;;;;1.80;0.90;;;21.00;35.90;;;;;;4993516;28;20398;-72
2021/11/28 02:57:13;;;;;;;1.40;0.80;;;21.10;36.00;;;;;;4993828;28;20478;-72
2021/11/28 02:59:39;;;;;;;1.38;0.80;;;21.00;36.00;;;;;;4993938;28;20435;-72
2021/11/28 03:02:05;;;;;;;1.33;0.90;;;21.00;36.00;;;;;;4993496;28;20481;-72
2021/11/28 03:04:31;;;;;;;1.10;0.70;;;21.00;35.90;;;;;;4993621;28;20409;-72
2021/11/28 03:06:57;;;;;;;1.20;0.80;;;21.00;36.00;;;;;;4993487;28;20896;-72
2021/11/28 03:09:23;;;;;;;1.00;0.80;;;21.00;35.90;;;;;;4992012;28;20418;-72
2021/11/28 03:11:49;;;;;;;3.55;0.90;;;21.00;35.90;;;;;;4993611;28;20387;-71
2021/11/28 03:14:15;;;;;;;1.00;0.70;;;21.00;36.00;;;;;;4991867;28;20409;-72
2021/11/28 03:16:40;;;;;;;1.17;0.80;;;21.00;36.10;;;;;;4992103;28;20908;-73
2021/11/28 03:19:06;;;;;;;1.63;0.80;;;21.00;36.00;;;;;;4991893;28;20421;-71
2021/11/28 03:21:34;;;;;;;1.10;0.77;;;21.00;36.00;;;;;;4992245;28;20394;-73
2021/11/28 03:24:03;;;;;;;1.20;0.80;;;21.00;36.00;;;;;;4992321;28;20394;-72
2021/11/28 03:26:38;;;;;;;1.00;0.70;;;21.00;36.00;;;;;;4991822;28;20398;-72
2021/11/28 03:29:15;;;;;;;1.30;0.80;;;20.90;35.90;;;;;;4993298;28;20458;-72
2021/11/28 03:31:45;;;;;;;0.90;0.60;;;21.00;36.00;;;;;;4993005;28;20393;-71
2021/11/28 03:34:14;;;;;;;0.80;0.60;;;21.00;36.00;;;;;;4991364;28;20394;-72
2021/11/28 03:36:48;;;;;;;0.98;0.70;;;21.00;35.90;;;;;;4972717;28;20402;-73
2021/11/28 03:39:16;;;;;;;1.27;0.80;;;20.90;35.70;;;;;;4954189;28;21032;-72
2021/11/28 03:41:44;;;;;;;1.08;0.70;;;21.00;35.80;;;;;;4954412;28;20405;-73
2021/11/28 03:44:10;;;;;;;1.40;0.70;;;21.00;35.90;;;;;;4954091;28;20404;-71
2021/11/28 03:46:35;;;;;;;0.98;0.70;;;21.00;35.70;;;;;;4954410;28;20394;-72
2021/11/28 03:49:02;;;;;;;1.30;0.77;;;21.00;35.80;;;;;;4953989;28;20927;-73
2021/11/28 03:51:28;;;;;;;0.95;0.60;;;20.90;35.70;;;;;;4953986;28;20879;-73
2021/11/28 03:53:54;;;;;;;1.38;0.60;;;20.90;35.70;;;;;;4969140;28;20500;-73
2021/11/28 03:56:20;;;;;;;1.17;0.70;;;20.90;35.70;;;;;;4953369;28;20485;-71
2021/11/28 03:58:46;;;;;;;1.13;0.68;;;20.90;35.60;;;;;;4953923;28;20390;-72
2021/11/28 04:01:15;;;;;;;0.80;0.60;;;20.90;35.90;;;;;;4953874;28;20784;-72
2021/11/28 04:03:40;;;;;;;0.90;0.60;;;20.90;35.90;;;;;;4953981;28;20943;-71
2021/11/28 04:06:07;;;;;;;0.93;0.65;;;20.90;35.90;;;;;;4953580;28;20473;-71
2021/11/28 04:08:33;;;;;;;0.90;0.50;;;21.00;36.00;;;;;;4952687;28;20438;-72
2021/11/28 04:11:00;;;;;;;1.10;0.60;;;20.90;35.80;;;;;;4953742;28;20402;-73
2021/11/28 04:13:26;;;;;;;1.10;0.60;;;20.90;36.00;;;;;;4953786;28;20804;-72
2021/11/28 04:15:52;;;;;;;1.20;0.80;;;20.90;35.80;;;;;;4968665;28;20485;-72
2021/11/28 04:18:18;;;;;;;1.20;0.60;;;20.90;35.90;;;;;;4953339;28;20493;-71
2021/11/28 04:20:45;;;;;;;1.10;0.50;;;20.90;35.80;;;;;;4968575;28;20942;-72
2021/11/28 04:23:11;;;;;;;0.90;0.60;;;20.90;35.80;;;;;;4953548;28;20406;-72
2021/11/28 04:25:38;;;;;;;1.30;0.60;;;20.90;35.80;;;;;;4953726;28;20469;-72
2021/11/28 04:28:04;;;;;;;1.42;0.55;;;20.90;35.90;;;;;;4953090;28;20520;-72
2021/11/28 04:30:30;;;;;;;0.80;0.60;;;20.90;35.90;;;;;;4953182;28;20760;-73
2021/11/28 04:32:56;;;;;;;1.30;0.70;;;20.90;35.90;;;;;;4953382;28;20386;-72
2021/11/28 04:35:22;;;;;;;0.95;0.50;;;20.80;35.80;;;;;;4953538;28;20488;-72
2021/11/28 04:37:49;;;;;;;0.90;0.50;;;20.80;35.70;;;;;;4953476;28;20435;-72
2021/11/28 04:40:15;;;;;;;0.95;0.60;;;20.80;35.70;;;;;;4953040;28;20417;-72
2021/11/28 04:42:41;;;;;;;0.68;0.40;;;20.80;35.70;;;;;;4953392;28;20395;-72
2021/11/28 04:45:09;;;;;;;0.82;0.60;;;20.80;35.80;;;;;;4953367;28;20404;-72
2021/11/28 04:47:35;;;;;;;1.52;0.57;;;20.90;36.00;;;;;;4953396;28;20430;-72
2021/11/28 04:50:01;;;;;;;0.75;0.50;;;20.90;35.70;;;;;;4968156;28;20394;-72
2021/11/28 04:52:26;;;;;;;0.70;0.50;;;20.80;35.70;;;;;;4952816;28;20440;-72
2021/11/28 04:54:53;;;;;;;1.10;0.50;;;20.90;35.70;;;;;;4953227;29;20441;-72
2021/11/28 04:57:21;;;;;;;0.90;0.52;;;20.80;35.70;;;;;;4953052;28;20489;-72
2021/11/28 04:59:47;;;;;;;0.80;0.50;;;20.90;35.60;;;;;;4953268;29;20402;-71
2021/11/28 05:02:14;;;;;;;1.00;0.50;;;20.90;35.80;;;;;;4953008;28;20406;-71
2021/11/28 05:04:39;;;;;;;0.60;0.40;;;20.80;35.50;;;;;;4953222;28;20410;-72
2021/11/28 05:07:05;;;;;;;1.70;0.50;;;20.80;35.50;;;;;;4952734;28;20497;-72
2021/11/28 05:09:31;;;;;;;0.70;0.50;;;20.80;35.60;;;;;;4967911;28;20418;-73
2021/11/28 05:11:57;;;;;;;0.70;0.43;;;20.80;35.60;;;;;;4953212;28;20406;-72
2021/11/28 05:14:22;;;;;;;0.70;0.50;;;20.80;35.80;;;;;;4952675;28;20394;-72
2021/11/28 05:16:48;;;;;;;0.70;0.47;;;20.80;35.60;;;;;;4953216;29;20393;-71
2021/11/28 05:19:14;;;;;;;0.80;0.50;;;20.80;35.50;;;;;;4955314;28;20477;-72
2021/11/28 05:21:41;;;;;;;0.80;0.50;;;20.80;35.60;;;;;;4956804;28;20406;-70
2021/11/28 05:24:07;;;;;;;0.70;0.50;;;20.80;35.70;;;;;;4956946;28;20427;-71
2021/11/28 05:26:33;;;;;;;0.70;0.47;;;20.80;35.70;;;;;;4956452;28;20402;-71
2021/11/28 05:28:59;;;;;;;0.60;0.40;;;20.80;35.70;;;;;;4956639;29;20434;-71
2021/11/28 05:31:24;;;;;;;1.10;0.50;;;20.80;35.70;;;;;;4956858;28;20401;-73
2021/11/28 05:33:50;;;;;;;0.50;0.40;;;20.80;35.70;;;;;;4971597;28;20413;-72
2021/11/28 05:36:17;;;;;;;0.53;0.40;;;20.80;35.70;;;;;;4956074;28;20398;-71
2021/11/28 05:38:44;;;;;;;0.57;0.40;;;20.80;35.80;;;;;;4956552;28;20485;-73
2021/11/28 05:41:11;;;;;;;0.50;0.40;;;20.80;35.70;;;;;;4956583;28;20446;-72
2021/11/28 05:43:39;;;;;;;0.50;0.40;;;20.80;35.60;;;;;;4956622;28;20409;-73
2021/11/28 05:46:05;;;;;;;0.57;0.40;;;20.80;35.80;;;;;;4971136;28;20394;-72
2021/11/28 05:48:31;;;;;;;0.77;0.50;;;20.80;35.70;;;;;;4955770;28;20990;-72
2021/11/28 05:50:57;;;;;;;1.63;0.40;;;20.80;35.60;;;;;;4956451;28;20906;-72
2021/11/28 05:53:24;;;;;;;0.60;0.40;;;20.80;35.70;;;;;;4955087;28;20413;-72
2021/11/28 05:55:50;;;;;;;0.73;0.47;;;20.80;35.80;;;;;;4956408;28;20402;-72
2021/11/28 05:58:16;;;;;;;0.75;0.35;;;20.80;35.70;;;;;;4955981;28;20410;-71
2021/11/28 06:00:42;;;;;;;0.50;0.40;;;20.70;35.60;;;;;;4971148;28;20394;-72
2021/11/28 06:03:08;;;;;;;1.38;0.50;;;20.80;35.80;;;;;;4956073;28;20413;-73
2021/11/28 06:05:34;;;;;;;0.80;0.40;;;20.80;35.40;;;;;;4956097;28;20753;-72
2021/11/28 06:08:00;;;;;;;2.03;0.40;;;20.80;35.30;;;;;;4955580;28;20422;-72
2021/11/28 06:10:26;;;;;;;2.00;0.70;;;20.90;35.40;;;;;;4955626;28;20401;-72
2021/11/28 06:12:52;;;;;;;2.25;0.57;;;21.00;35.70;;;;;;4956064;28;20409;-72
2021/11/28 06:15:17;;;;;;;3.22;0.60;;;20.90;34.50;;;;;;4955974;28;20753;-73
2021/11/28 06:17:43;;;;;;;2.67;0.70;;;20.80;34.70;;;;;;4970553;28;20438;-72
2021/11/28 06:20:09;;;;;;;2.35;0.65;;;20.80;35.40;;;;;;4955874;28;20771;-71
2021/11/28 06:22:36;;;;;;;2.08;0.65;;;20.80;35.30;;;;;;4955372;28;20930;-72
2021/11/28 06:25:03;;;;;;;1.23;0.60;;;20.70;35.50;;;;;;4970588;28;20466;-73
2021/11/28 06:27:29;;;;;;;1.40;0.60;;;20.70;36.00;;;;;;4955624;28;20406;-72
2021/11/28 06:29:55;;;;;;;0.90;0.50;;;20.70;35.90;;;;;;4954721;28;21077;-72
2021/11/28 06:32:21;;;;;;;1.33;0.70;;;20.70;35.90;;;;;;4955170;28;20485;-72
2021/11/28 06:34:47;;;;;;;1.67;0.68;;;20.70;35.70;;;;;;4955606;28;20402;-73
2021/11/28 06:37:14;;;;;;;1.40;0.60;;;20.80;35.70;;;;;;4970393;28;20408;-73
2021/11/28 06:39:40;;;;;;;2.22;0.52;;;20.80;35.60;;;;;;4955505;28;20402;-73
2021/11/28 06:42:05;;;;;;;1.33;0.60;;;20.80;35.60;;;;;;4954317;28;20398;-71
2021/11/28 06:44:31;;;;;;;1.60;0.50;;;20.80;35.60;;;;;;4954548;28;20832;-72
2021/11/28 06:46:57;;;;;;;1.30;0.50;;;20.80;35.60;;;;;;4954978;28;20430;-71
2021/11/28 06:49:26;;;;;;;1.05;0.52;;;20.80;35.60;;;;;;4955339;28;20477;-73
2021/11/28 06:51:56;;;;;;;1.48;0.52;;;20.80;35.60;;;;;;4955381;28;20464;-72
2021/11/28 06:54:23;;;;;;;1.20;0.63;;;20.80;35.60;;;;;;4954869;28;20413;-72
2021/11/28 06:56:49;;;;;;;1.93;0.60;;;20.80;35.70;;;;;;4955271;28;21053;-72
2021/11/28 06:59:15;;;;;;;1.23;0.50;;;20.80;35.70;;;;;;4955173;28;20429;-72
2021/11/28 07:01:41;;;;;;;1.43;0.70;;;20.80;35.70;;;;;;4955193;28;20429;-71
2021/11/28 07:04:07;;;;;;;1.30;0.73;;;20.80;35.90;;;;;;4956017;28;20406;-72
2021/11/28 07:06:32;;;;;;;2.60;1.40;;;20.80;36.10;;;;;;4954920;29;20456;-72
2021/11/28 07:08:58;;;;;;;2.50;1.50;;;20.80;36.30;;;;;;4955146;28;20502;-73
2021/11/28 07:11:24;;;;;;;4.50;1.00;;;20.80;36.40;;;;;;4954615;28;20398;-72
2021/11/28 07:13:51;;;;;;;2.70;1.20;;;20.80;36.60;;;;;;4954867;29;20405;-72
2021/11/28 07:16:17;;;;;;;2.00;1.23;;;20.80;36.30;;;;;;4954642;28;20397;-71
2021/11/28 07:18:44;;;;;;;3.00;1.13;;;20.70;36.30;;;;;;4954342;28;20402;-70
2021/11/28 07:21:11;;;;;;;3.03;1.00;;;20.70;36.20;;;;;;4956886;28;20394;-70
2021/11/28 07:23:37;;;;;;;2.20;1.10;;;20.70;36.20;;;;;;4956567;28;20486;-71
2021/11/28 07:26:04;;;;;;;2.97;0.93;;;20.70;36.40;;;;;;4955610;28;20429;-72
2021/11/28 07:28:30;;;;;;;1.98;0.90;;;20.70;36.50;;;;;;4954123;28;20429;-72
2021/11/28 07:30:55;;;;;;;1.42;0.80;;;20.70;36.40;;;;;;4969928;28;20389;-72
2021/11/28 07:33:21;;;;;;;3.28;1.00;;;20.70;36.30;;;;;;4954564;28;20398;-72
2021/11/28 07:35:47;;;;;;;1.30;0.88;;;20.70;36.20;;;;;;4954548;29;20397;-72
2021/11/28 07:38:13;;;;;;;2.30;0.80;;;20.70;36.20;;;;;;4953126;28;20414;-71
2021/11/28 07:40:38;;;;;;;1.25;0.80;;;20.70;36.30;;;;;;4953792;29;20883;-72
2021/11/28 07:43:04;;;;;;;1.67;0.87;;;20.70;36.30;;;;;;4954260;28;20416;-72
2021/11/28 07:45:30;;;;;;;1.60;0.85;;;20.70;36.30;;;;;;4954037;28;20520;-72
2021/11/28 07:47:56;;;;;;;1.10;0.80;;;20.70;36.30;;;;;;4954128;28;20414;-72
2021/11/28 07:50:22;;;;;;;1.80;0.90;;;20.70;36.20;;;;;;4954873;28;20390;-70
2021/11/28 07:52:48;;;;;;;2.13;0.90;;;20.60;37.60;;;;;;4954046;29;20389;-71
2021/11/28 07:55:13;;;;;;;2.53;1.02;;;20.60;37.40;;;;;;4954130;28;20410;-72
2021/11/28 07:57:39;;;;;;;2.60;0.80;;;20.70;38.40;;;;;;4954127;29;20449;-72
2021/11/28 08:00:05;;;;;;;2.08;0.90;;;20.70;39.00;;;;;;4953985;28;20457;-72
2021/11/28 08:02:31;;;;;;;1.90;0.80;;;20.70;39.50;;;;;;4953526;28;20449;-72
2021/11/28 08:04:57;;;;;;;2.08;0.73;;;20.70;37.90;;;;;;4953984;28;20405;-71
2021/11/28 08:07:23;;;;;;;2.25;0.88;;;20.70;39.60;;;;;;4953856;28;20434;-70
2021/11/28 08:09:49;;;;;;;2.10;0.90;;;20.70;39.60;;;;;;4953808;28;20430;-72
2021/11/28 08:12:15;;;;;;;2.03;0.77;;;20.70;39.00;;;;;;4953993;28;20781;-72
2021/11/28 08:14:40;;;;;;;2.95;0.85;;;20.70;39.20;;;;;;4953388;29;20787;-72
2021/11/28 08:17:06;;;;;;;2.77;0.70;;;20.70;39.50;;;;;;4952475;28;20401;-72
2021/11/28 08:19:32;;;;;;;1.75;0.70;;;20.70;38.00;;;;;;4962546;28;20410;-71
2021/11/28 08:21:58;;;;;;;4.63;0.80;;;20.70;37.30;;;;;;4968572;28;20476;-72
2021/11/28 08:24:25;;;;;;;2.17;0.88;;;20.70;37.20;;;;;;4974118;28;20911;-72
2021/11/28 08:26:51;;;;;;;1.25;0.73;;;20.70;37.40;;;;;;4970836;28;20411;-73
2021/11/28 08:29:17;;;;;;;2.90;0.90;;;20.80;36.90;;;;;;4971564;28;20488;-73
2021/11/28 08:31:45;;;;;;;4.07;0.80;;;20.90;37.10;;;;;;4975105;28;20390;-71
2021/11/28 08:34:12;;;;;;;2.15;0.70;;;20.90;37.00;;;;;;4970029;28;20435;-70
2021/11/28 08:36:38;;;;;;;3.13;0.93;;;20.90;36.90;;;;;;4967527;28;20774;-72
2021/11/28 08:39:05;;;;;;;3.08;1.00;;;20.90;36.90;;;;;;4969027;28;20883;-72
2021/11/28 08:41:32;;;;;;;2.78;0.80;;;20.80;36.80;;;;;;4973756;28;20407;-72
2021/11/28 08:43:58;;;;;;;4.57;0.98;;;20.80;36.80;;;;;;4972667;28;20828;-72
2021/11/28 08:46:25;;;;;;;2.30;0.90;;;20.80;36.80;;;;;;4972042;28;20434;-71
2021/11/28 08:48:53;;;;;;;4.70;0.90;;;20.80;36.70;;;;;;4965511;28;20452;-71
2021/11/28 08:51:21;;;;;;;3.22;0.98;;;20.70;36.60;;;;;;4974278;28;20485;-73
2021/11/28 08:53:47;;;;;;;3.47;0.90;;;20.70;36.70;;;;;;4968224;28;20520;-72
2021/11/28 08:56:13;;;;;;;2.20;0.90;;;20.80;36.60;;;;;;4980585;28;20396;-72
2021/11/28 08:58:39;;;;;;;3.92;0.90;;;20.80;36.40;;;;;;4978310;28;20418;-72
2021/11/28 09:01:05;;;;;;;1.93;0.90;;;20.80;36.50;;;;;;4980885;28;20436;-72
2021/11/28 09:03:32;;;;;;;2.05;0.80;;;20.80;36.50;;;;;;4979540;28;20503;-71
2021/11/28 09:05:58;;;;;;;3.03;0.70;;;20.80;36.40;;;;;;4978304;28;20488;-70
2021/11/28 09:08:24;;;;;;;1.50;0.85;;;20.80;36.50;;;;;;4973381;28;20515;-72
2021/11/28 09:10:50;;;;;;;2.03;0.70;;;20.80;36.40;;;;;;4975563;28;20503;-72
2021/11/28 09:13:16;;;;;;;3.28;0.82;;;20.80;36.40;;;;;;4976588;28;20395;-72
2021/11/28 09:15:43;;;;;;;2.95;0.90;;;20.80;36.30;;;;;;4979282;28;20916;-71
2021/11/28 09:18:18;;;;;;;1.35;0.77;;;20.80;36.30;;;;;;4975971;28;21373;-72
2021/11/28 09:20:49;;;;;;;1.48;0.90;;;20.80;36.30;;;;;;4975570;28;20465;-71
2021/11/28 09:25:41;;;;;;;1.53;0.63;;;20.80;36.20;;;;;;4973438;28;20514;-73
2021/11/28 09:28:07;;;;;;;1.55;0.80;;;20.80;36.20;;;;;;4975638;28;20506;-72
2021/11/28 09:30:34;;;;;;;1.40;0.83;;;20.90;36.10;;;;;;4974715;28;20907;-73
2021/11/28 09:33:03;;;;;;;2.53;1.10;;;20.90;36.10;;;;;;4972615;28;21582;-71
2021/11/28 09:35:29;;;;;;;1.20;0.60;;;20.90;36.00;;;;;;4979477;28;20394;-70
2021/11/28 09:37:57;;;;;;;2.50;0.85;;;20.90;36.00;;;;;;4972631;28;20462;-71
2021/11/28 09:40:24;;;;;;;1.80;0.70;;;20.90;35.90;;;;;;4978319;28;20396;-72
2021/11/28 09:42:57;;;;;;;1.50;0.77;;;20.90;35.90;;;;;;4980020;28;20394;-72
2021/11/28 09:45:24;;;;;;;1.27;0.80;;;20.90;35.90;;;;;;4980341;28;20750;-71
2021/11/28 09:47:51;;;;;;;2.87;0.90;;;20.90;35.90;;;;;;4980004;28;20422;-72
2021/11/28 09:50:18;;;;;;;1.13;0.82;;;20.90;35.80;;;;;;4982517;28;20410;-73
2021/11/28 09:52:44;;;;;;;2.13;1.08;;;20.90;35.80;;;;;;4981618;28;20474;-72
2021/11/28 09:55:12;;;;;;;1.50;0.80;;;20.90;35.70;;;;;;4979061;28;20411;-72
2021/11/28 09:57:39;;;;;;;2.90;1.00;;;20.90;35.70;;;;;;4977894;28;20388;-72
2021/11/28 10:00:09;;;;;;;2.20;0.90;;;20.90;35.70;;;;;;4975798;28;20450;-72
2021/11/28 10:02:36;;;;;;;3.03;0.90;;;21.00;35.70;;;;;;4976319;28;20402;-73
2021/11/28 10:05:06;;;;;;;2.05;0.82;;;20.90;35.60;;;;;;4979187;28;20897;-72
2021/11/28 10:07:32;;;;;;;3.10;0.80;;;20.90;35.60;;;;;;4972602;28;20416;-70
2021/11/28 10:09:59;;;;;;;1.75;0.90;;;20.90;35.80;;;;;;4974748;28;20758;-72
2021/11/28 10:12:27;;;;;;;2.78;0.80;;;20.90;35.80;;;;;;4971242;28;20818;-73
2021/11/28 10:14:56;;;;;;;1.90;0.90;;;20.90;35.80;;;;;;4973109;28;20428;-72
2021/11/28 10:17:27;;;;;;;4.07;1.05;;;20.90;35.90;;;;;;4981258;28;20390;-72
2021/11/28 10:19:53;;;;;;;2.75;1.10;;;20.90;35.90;;;;;;4970232;28;20846;-70
2021/11/28 10:22:19;;;;;;;2.20;1.10;;;20.90;35.90;;;;;;4972201;28;20406;-71
2021/11/28 10:24:53;;;;;;;2.25;1.13;;;20.90;35.90;;;;;;4973992;28;20405;-72
2021/11/28 10:27:30;;;;;;;1.90;1.00;;;20.90;36.00;;;;;;4972041;28;20403;-71
2021/11/28 10:29:55;;;;;;;2.40;1.38;;;21.00;36.00;;;;;;4969753;28;20447;-73
2021/11/28 10:32:24;;;;;;;1.93;1.27;;;21.00;36.00;;;;;;4976487;28;20473;-73
2021/11/28 10:34:50;;;;;;;2.05;1.00;;;20.90;36.00;;;;;;4970211;28;20483;-72
2021/11/28 10:37:19;;;;;;;1.40;1.00;;;21.00;36.00;;;;;;4969230;28;20423;-73
2021/11/28 10:39:51;;;;;;;2.33;1.02;;;20.90;36.00;;;;;;4971224;28;20395;-74
2021/11/28 10:42:23;;;;;;;1.92;1.30;;;21.00;36.00;;;;;;4969267;28;20392;-72
2021/11/28 10:45:14;;;;;;;2.30;1.20;;;21.00;36.00;;;;;;4972610;28;20414;-73
2021/11/28 10:47:45;;;;;;;2.00;1.20;;;21.00;36.00;;;;;;4974675;28;20488;-72
2021/11/28 10:50:18;;;;;;;1.58;1.05;;;21.00;36.00;;;;;;4972033;28;20402;-72
2021/11/28 10:52:48;;;;;;;1.60;1.02;;;21.00;35.90;;;;;;4971206;28;20392;-72
2021/11/28 10:55:28;;;;;;;2.05;0.90;;;21.00;35.90;;;;;;4974282;28;20389;-73
2021/11/28 10:58:11;;;;;;;2.00;1.10;;;21.10;35.90;;;;;;4974207;28;20392;-71
2021/11/28 11:00:45;;;;;;;1.83;1.00;;;21.10;35.80;;;;;;4976131;28;20413;-73
2021/11/28 11:03:20;;;;;;;1.50;1.30;;;21.10;35.80;;;;;;4971935;28;20394;-71
2021/11/28 11:05:52;;;;;;;2.08;1.10;;;21.10;35.70;;;;;;4970192;28;20794;-71
2021/11/28 11:08:23;;;;;;;1.40;1.05;;;21.10;35.70;;;;;;4972786;28;20424;-69
2021/11/28 11:11:09;;;;;;;1.67;1.20;;;21.10;35.70;;;;;;4973190;28;20412;-72
2021/11/28 11:14:03;;;;;;;2.80;1.40;;;21.10;35.60;;;;;;4974336;28;20406;-70
2021/11/28 11:16:40;;;;;;;3.45;1.20;;;21.10;35.50;;;;;;4967197;28;20408;-68
2021/11/28 11:19:29;;;;;;;2.50;1.30;;;21.10;36.00;;;;;;4972116;28;20880;-69
2021/11/28 11:22:02;;;;;;;2.20;1.23;;;21.10;36.10;;;;;;4970435;28;20408;-70
2021/11/28 11:24:28;;;;;;;1.60;1.00;;;21.20;35.90;;;;;;4973592;28;20399;-72
2021/11/28 11:27:04;;;;;;;2.30;1.20;;;21.20;35.80;;;;;;4974899;28;20405;-69
2021/11/28 11:29:30;;;;;;;2.95;1.20;;;21.10;36.30;;;;;;4973574;28;20438;-70
2021/11/28 11:31:58;;;;;;;3.37;1.13;;;21.10;36.60;;;;;;4971935;28;20396;-70
2021/11/28 11:34:32;;;;;;;4.22;1.40;;;21.20;37.00;;;;;;4971984;28;20404;-70
2021/11/28 11:37:01;;;;;;;3.67;1.85;;;21.30;37.00;;;;;;4974589;28;20409;-69
2021/11/28 11:39:30;;;;;;;3.88;1.65;;;21.30;37.70;;;;;;4973980;28;20399;-71
2021/11/28 11:41:56;;;;;;;3.28;1.48;;;21.30;37.70;;;;;;4969564;28;20408;-71
2021/11/28 11:44:25;;;;;;;8.27;1.57;;;21.40;38.00;;;;;;4973771;28;20391;-69
2021/11/28 11:46:51;;;;;;;3.92;1.67;;;21.40;38.50;;;;;;4989819;28;20402;-69
2021/11/28 11:49:17;;;;;;;5.03;1.50;;;21.50;39.00;;;;;;4969478;28;20788;-69
2021/11/28 11:51:46;;;;;;;5.68;1.73;;;21.60;39.40;;;;;;4969239;28;20409;-71
2021/11/28 11:54:31;;;;;;;3.25;1.38;;;21.60;40.10;;;;;;4968177;28;20488;-70
2021/11/28 11:57:39;;;;;;;4.07;1.30;;;21.60;40.20;;;;;;4974523;28;20386;-70
2021/11/28 12:00:11;;;;;;;4.40;1.40;;;21.60;40.20;;;;;;4963067;28;20404;-70
2021/11/28 12:02:50;;;;;;;4.30;1.40;;;21.70;40.30;;;;;;4971033;28;20408;-71
2021/11/28 12:05:25;;;;;;;4.32;1.40;;;21.70;40.70;;;;;;4967458;28;20421;-69
2021/11/28 12:07:57;;;;;;;4.05;1.40;;;21.70;40.10;;;;;;4970470;28;20422;-71
2021/11/28 12:10:30;;;;;;;5.43;1.50;;;21.70;40.10;;;;;;4971637;28;20893;-71
2021/11/28 12:12:58;;;;;;;4.10;1.50;;;21.70;40.10;;;;;;4972962;28;20813;-70
2021/11/28 12:15:35;;;;;;;5.40;1.33;;;21.70;40.70;;;;;;4974110;28;20392;-69
2021/11/28 12:18:01;;;;;;;3.05;1.20;;;21.80;40.20;;;;;;4974066;28;20504;-70
2021/11/28 12:21:09;;;;;;;4.80;1.42;;;21.80;40.50;;;;;;4972850;28;20387;-70
2021/11/28 12:23:55;;;;;;;3.00;1.20;;;21.70;40.30;;;;;;4930006;28;20459;-70
2021/11/28 12:26:30;;;;;;;6.13;1.30;;;21.80;40.50;;;;;;4987807;28;20396;-70
2021/11/28 12:29:11;;;;;;;3.00;1.17;;;21.80;40.50;;;;;;4972743;28;21510;-70
2021/11/28 12:31:46;;;;;;;3.78;1.23;;;21.80;40.20;;;;;;4971423;28;20686;-69
2021/11/28 12:34:13;;;;;;;3.22;1.17;;;21.70;39.10;;;;;;4971143;28;20416;-69
2021/11/28 12:36:47;;;;;;;2.75;1.10;;;21.70;39.40;;;;;;4972337;28;20915;-70
2021/11/28 12:39:16;;;;;;;2.58;1.10;;;21.70;39.30;;;;;;4965509;28;20443;-70
2021/11/28 12:41:48;;;;;;;3.07;1.17;;;21.70;39.10;;;;;;4971030;28;20489;-69
2021/11/28 12:44:33;;;;;;;3.00;1.20;;;21.70;39.00;;;;;;4973210;28;20443;-69
2021/11/28 12:47:18;;;;;;;2.78;1.00;;;21.70;38.80;;;;;;4968946;28;20490;-69
2021/11/28 12:49:48;;;;;;;2.83;1.10;;;21.70;38.60;;;;;;4982796;28;20894;-69
2021/11/28 12:52:17;;;;;;;3.65;1.20;;;21.70;38.50;;;;;;4972632;28;20404;-71
2021/11/28 12:55:02;;;;;;;2.80;1.30;;;21.60;38.40;;;;;;4971868;28;20945;-70
2021/11/28 12:57:37;;;;;;;2.60;1.00;;;21.70;38.30;;;;;;4971398;28;20888;-72
2021/11/28 13:00:12;;;;;;;1.42;1.00;;;21.70;38.30;;;;;;4964858;28;20474;-69